Time;durP1;ratioP1;P1;durP2;ratioP2;P2;SDS_P1;SDS_P2;PMS_P1;PMS_P2;Temp;Humidity;BMP_temperature;BMP_pressure;BME280_temperature;BME280_humidity;BME280_pressure;Samples;Min_cycle;Max_cycle;Signal;HPM_P1;HPM_P2
2022/06/04 00:00:24;;;;;;;15.97;14.30;;;18.00;99.90;;;;;;4953078;28;20492;-65
2022/06/04 00:02:51;;;;;;;15.80;14.60;;;17.90;99.90;;;;;;4954231;28;20439;-65
2022/06/04 00:05:20;;;;;;;16.80;15.40;;;17.80;99.90;;;;;;4952647;29;20448;-65
2022/06/04 00:07:46;;;;;;;15.43;14.13;;;17.70;99.90;;;;;;4954181;29;20440;-65
2022/06/04 00:15:46;;;;;;;16.27;15.17;;;17.70;99.90;;;;;;4949986;29;20804;-65
2022/06/04 00:18:12;;;;;;;15.97;14.70;;;17.80;99.90;;;;;;4952867;28;20974;-65
2022/06/04 00:20:38;;;;;;;15.80;14.60;;;17.80;99.90;;;;;;4953891;28;20488;-64
2022/06/04 00:23:06;;;;;;;17.67;16.47;;;17.70;99.90;;;;;;4953209;29;20268;-64
2022/06/04 00:25:33;;;;;;;17.13;15.87;;;17.60;99.90;;;;;;4953444;29;20934;-65
2022/06/04 00:28:01;;;;;;;17.13;15.93;;;17.50;99.90;;;;;;4952544;29;20515;-65
2022/06/04 00:30:27;;;;;;;15.87;14.60;;;17.50;99.90;;;;;;4952854;29;20539;-64
2022/06/04 00:32:52;;;;;;;16.47;15.23;;;17.50;99.90;;;;;;4953978;29;20887;-65
2022/06/04 00:35:18;;;;;;;16.90;15.67;;;17.50;99.90;;;;;;4952401;28;20177;-65
2022/06/04 00:37:44;;;;;;;16.90;15.60;;;17.50;99.90;;;;;;4953088;29;20211;-65
2022/06/04 00:40:14;;;;;;;17.17;15.87;;;17.40;99.90;;;;;;4952121;29;20422;-65
2022/06/04 00:42:40;;;;;;;19.30;17.57;;;17.40;99.90;;;;;;4953890;29;20559;-64
2022/06/04 00:45:34;;;;;;;18.67;17.27;;;17.40;99.90;;;;;;4952975;29;20441;-64
2022/06/04 00:48:01;;;;;;;17.80;16.20;;;17.50;99.90;;;;;;4947358;28;20267;-64
2022/06/04 00:50:29;;;;;;;20.03;18.23;;;17.50;99.90;;;;;;4951802;28;20461;-65
2022/06/04 00:52:57;;;;;;;20.97;19.17;;;17.50;99.90;;;;;;4953468;28;20859;-65
2022/06/04 00:55:23;;;;;;;19.63;18.13;;;17.50;99.90;;;;;;4953548;28;20448;-64
2022/06/04 00:58:02;;;;;;;17.17;15.97;;;17.50;99.90;;;;;;4952668;29;20474;-64
2022/06/04 01:00:37;;;;;;;16.37;15.13;;;17.50;99.90;;;;;;4945274;28;20467;-64
2022/06/04 01:03:11;;;;;;;17.90;16.40;;;17.40;99.90;;;;;;4952574;29;20433;-65
2022/06/04 01:06:01;;;;;;;18.00;16.63;;;17.40;99.90;;;;;;4953348;29;20438;-64
2022/06/04 01:08:45;;;;;;;16.97;15.57;;;17.40;99.90;;;;;;4951562;29;20458;-65
2022/06/04 01:11:26;;;;;;;15.37;14.20;;;17.40;99.90;;;;;;4951808;29;20496;-65
2022/06/04 01:14:16;;;;;;;19.47;17.87;;;17.30;99.90;;;;;;4950795;29;20448;-65
2022/06/04 01:16:55;;;;;;;16.27;14.97;;;17.30;99.90;;;;;;4950872;29;20448;-63
2022/06/04 01:19:42;;;;;;;18.13;16.70;;;17.30;99.90;;;;;;4951073;29;20846;-66
2022/06/04 01:22:34;;;;;;;19.30;17.50;;;17.30;99.90;;;;;;4952832;28;20519;-65
2022/06/04 01:25:15;;;;;;;16.33;15.13;;;17.30;99.90;;;;;;4951761;29;20444;-65
2022/06/04 01:27:48;;;;;;;14.90;13.80;;;17.40;99.90;;;;;;4946633;29;20772;-66
2022/06/04 01:30:30;;;;;;;15.37;14.17;;;17.30;99.90;;;;;;4952648;28;20424;-65
2022/06/04 01:33:06;;;;;;;17.50;16.20;;;17.40;99.90;;;;;;4952972;29;20665;-66
2022/06/04 01:35:34;;;;;;;15.80;14.60;;;17.30;99.90;;;;;;4944602;29;20440;-65
2022/06/04 01:38:20;;;;;;;16.77;15.37;;;17.10;99.90;;;;;;4951019;29;20695;-65
2022/06/04 01:41:04;;;;;;;15.87;14.67;;;17.10;99.90;;;;;;4953541;28;20491;-65
2022/06/04 01:43:43;;;;;;;16.70;15.30;;;17.00;99.90;;;;;;4945261;29;20436;-64
2022/06/04 01:46:38;;;;;;;18.03;16.50;;;17.00;99.90;;;;;;4952436;29;20452;-66
2022/06/04 01:49:22;;;;;;;19.00;17.50;;;17.00;99.90;;;;;;4942283;29;20445;-65
2022/06/04 01:51:50;;;;;;;18.50;17.03;;;17.00;99.90;;;;;;4952515;28;20462;-64
2022/06/04 01:54:23;;;;;;;18.00;16.50;;;17.00;99.90;;;;;;4951977;28;21013;-64
2022/06/04 01:56:57;;;;;;;16.43;15.10;;;17.00;99.90;;;;;;4951592;29;20439;-65
2022/06/04 01:59:37;;;;;;;16.87;15.47;;;17.00;99.90;;;;;;4951481;29;20464;-65
2022/06/04 02:02:07;;;;;;;15.43;14.13;;;17.00;99.90;;;;;;4950164;29;20470;-65
2022/06/04 02:04:37;;;;;;;16.97;15.57;;;17.00;99.90;;;;;;4947522;29;20798;-65
2022/06/04 02:07:31;;;;;;;16.10;14.87;;;16.90;99.90;;;;;;4950772;29;20479;-64
2022/06/04 02:10:02;;;;;;;16.53;15.13;;;16.90;99.90;;;;;;4947177;29;20452;-65
2022/06/04 02:12:28;;;;;;;15.27;13.70;;;16.80;99.90;;;;;;4943491;29;20923;-64
2022/06/04 02:14:54;;;;;;;15.33;13.83;;;16.90;99.90;;;;;;4951540;29;20439;-64
2022/06/04 02:17:23;;;;;;;15.70;14.60;;;16.90;99.90;;;;;;4952441;29;20189;-65
2022/06/04 02:19:48;;;;;;;15.37;14.07;;;16.80;99.90;;;;;;4951494;29;20517;-66
2022/06/04 02:22:14;;;;;;;14.20;13.07;;;16.90;99.90;;;;;;4950713;29;20507;-65
2022/06/04 02:24:41;;;;;;;14.37;13.23;;;16.90;99.90;;;;;;4952570;29;20552;-65
2022/06/04 02:27:07;;;;;;;13.80;12.63;;;16.80;99.90;;;;;;4951129;29;20683;-64
2022/06/04 02:29:34;;;;;;;15.97;14.83;;;16.80;99.90;;;;;;4952539;29;20441;-64
2022/06/04 02:32:09;;;;;;;14.43;13.40;;;16.80;99.90;;;;;;4950643;29;20456;-65
2022/06/04 02:34:46;;;;;;;15.10;13.80;;;16.70;99.90;;;;;;4944794;29;20440;-65
2022/06/04 02:37:17;;;;;;;15.30;14.20;;;16.60;99.90;;;;;;4952290;29;20436;-66
2022/06/04 02:39:45;;;;;;;18.03;16.63;;;16.60;99.90;;;;;;4951295;28;20460;-65
2022/06/04 02:42:21;;;;;;;16.63;15.20;;;16.70;99.90;;;;;;4954148;28;20539;-65
2022/06/04 02:44:54;;;;;;;17.37;16.07;;;16.70;99.90;;;;;;4954842;29;20436;-65
2022/06/04 02:47:29;;;;;;;16.30;14.90;;;16.70;99.90;;;;;;4956294;29;20432;-66
2022/06/04 02:50:01;;;;;;;16.30;15.13;;;16.80;99.90;;;;;;4955595;29;20438;-64
2022/06/04 02:52:27;;;;;;;16.70;15.50;;;16.80;99.90;;;;;;4954464;29;20985;-64
2022/06/04 02:54:57;;;;;;;15.10;13.70;;;16.80;99.90;;;;;;4954855;29;20503;-65
2022/06/04 02:57:25;;;;;;;13.90;12.80;;;16.80;99.90;;;;;;4954942;28;21028;-64
2022/06/04 02:59:53;;;;;;;15.60;14.30;;;16.70;99.90;;;;;;4953719;29;20443;-64
2022/06/04 03:02:21;;;;;;;14.90;13.60;;;16.70;99.90;;;;;;4953885;28;20460;-65
2022/06/04 03:04:55;;;;;;;15.10;13.80;;;16.70;99.90;;;;;;4954055;29;20432;-66
2022/06/04 03:07:22;;;;;;;15.20;14.10;;;16.60;99.90;;;;;;4954887;29;20435;-66
2022/06/04 03:09:53;;;;;;;15.80;14.50;;;16.70;99.90;;;;;;4953569;29;20495;-65
2022/06/04 03:12:20;;;;;;;15.37;14.20;;;16.70;99.90;;;;;;4952224;28;20988;-66
2022/06/04 03:14:46;;;;;;;13.23;12.23;;;16.70;99.90;;;;;;4954222;28;20499;-65
2022/06/04 03:17:12;;;;;;;14.67;13.27;;;16.70;99.90;;;;;;4953487;28;20473;-65
2022/06/04 03:19:38;;;;;;;15.43;14.13;;;16.70;99.90;;;;;;4954057;29;20209;-65
2022/06/04 03:22:04;;;;;;;15.20;13.90;;;16.60;99.90;;;;;;4955003;28;20954;-66
2022/06/04 03:24:30;;;;;;;14.50;13.20;;;16.60;99.90;;;;;;4955282;29;20657;-65
2022/06/04 03:26:55;;;;;;;16.30;14.90;;;16.60;99.90;;;;;;4954116;29;20483;-64
2022/06/04 03:29:21;;;;;;;15.90;14.70;;;16.60;99.90;;;;;;4953365;29;20269;-65
2022/06/04 03:31:47;;;;;;;14.97;13.67;;;16.60;99.90;;;;;;4954922;28;20252;-65
2022/06/04 03:34:13;;;;;;;15.13;13.93;;;16.60;99.90;;;;;;4955173;29;20446;-65
2022/06/04 03:36:39;;;;;;;15.30;14.13;;;16.60;99.90;;;;;;4954838;28;20518;-65
2022/06/04 03:39:08;;;;;;;15.27;13.90;;;16.60;99.90;;;;;;4953671;28;20630;-65
2022/06/04 03:41:34;;;;;;;16.43;13.90;;;16.70;99.90;;;;;;4953925;28;20492;-64
2022/06/04 03:43:59;;;;;;;14.87;13.67;;;16.70;99.90;;;;;;4954121;28;20523;-65
2022/06/04 03:46:26;;;;;;;14.37;13.07;;;16.70;99.90;;;;;;4947735;29;20613;-65
2022/06/04 03:48:59;;;;;;;12.47;11.47;;;16.70;99.90;;;;;;4954619;29;20268;-65
2022/06/04 03:51:26;;;;;;;12.97;11.93;;;16.90;99.90;;;;;;4953260;28;20463;-66
2022/06/04 03:53:52;;;;;;;13.03;12.03;;;17.10;99.90;;;;;;4954191;29;20436;-64
2022/06/04 03:56:18;;;;;;;13.17;11.87;;;17.20;99.90;;;;;;4953175;29;20857;-65
2022/06/04 03:58:44;;;;;;;12.93;12.03;;;17.30;99.90;;;;;;4954643;29;20209;-65
2022/06/04 04:01:16;;;;;;;13.20;12.30;;;17.40;99.90;;;;;;4954219;28;20234;-65
2022/06/04 04:03:42;;;;;;;13.43;12.33;;;17.50;99.90;;;;;;4953322;29;20267;-65
2022/06/04 04:06:16;;;;;;;12.47;11.47;;;17.50;99.90;;;;;;4952053;29;20524;-65
2022/06/04 04:08:42;;;;;;;13.50;12.60;;;17.50;99.90;;;;;;4952538;29;20181;-65
2022/06/04 04:11:17;;;;;;;12.47;11.37;;;17.50;99.90;;;;;;4953351;28;20472;-65
2022/06/04 04:13:44;;;;;;;12.67;11.77;;;17.70;99.90;;;;;;4954117;29;20440;-65
2022/06/04 04:16:11;;;;;;;17.07;15.60;;;17.60;99.90;;;;;;4952276;29;20444;-64
2022/06/04 04:18:37;;;;;;;13.80;12.50;;;17.50;99.90;;;;;;4951552;29;20839;-65
2022/06/04 04:21:11;;;;;;;12.37;11.50;;;17.40;99.90;;;;;;4953302;28;20460;-66
2022/06/04 04:23:38;;;;;;;12.40;11.20;;;17.50;99.90;;;;;;4947117;29;20236;-65
2022/06/04 04:26:06;;;;;;;13.30;12.17;;;17.50;99.90;;;;;;4951575;29;20428;-63
2022/06/04 04:28:31;;;;;;;12.93;12.03;;;17.60;99.90;;;;;;4946214;29;20447;-65
2022/06/04 04:30:57;;;;;;;12.20;11.30;;;17.70;99.90;;;;;;4953325;28;20452;-65
2022/06/04 04:33:24;;;;;;;12.80;11.80;;;17.90;99.90;;;;;;4953177;28;20185;-65
2022/06/04 04:35:49;;;;;;;12.87;11.77;;;18.00;99.90;;;;;;4953732;29;20813;-64
2022/06/04 04:38:18;;;;;;;12.50;11.47;;;18.10;99.90;;;;;;4953254;29;20464;-64
2022/06/04 04:40:45;;;;;;;11.37;10.47;;;18.30;99.90;;;;;;4950080;28;20223;-65
2022/06/04 04:43:11;;;;;;;11.77;10.87;;;18.60;99.90;;;;;;4953552;29;20432;-65
2022/06/04 04:45:37;;;;;;;12.30;11.30;;;18.70;99.90;;;;;;4951944;29;20439;-64
2022/06/04 04:48:03;;;;;;;12.50;11.60;;;18.90;99.90;;;;;;4952379;29;20440;-65
2022/06/04 04:50:33;;;;;;;12.07;11.13;;;19.10;99.90;;;;;;4951167;29;20695;-65
2022/06/04 04:53:01;;;;;;;11.17;10.20;;;19.30;99.90;;;;;;4951453;29;20439;-64
2022/06/04 04:55:27;;;;;;;11.20;10.33;;;19.60;99.90;;;;;;4953369;29;20443;-65
2022/06/04 04:57:53;;;;;;;10.40;9.60;;;19.70;99.90;;;;;;4952569;29;20464;-64
2022/06/04 05:00:19;;;;;;;11.57;10.57;;;19.70;99.90;;;;;;4952062;28;20197;-64
2022/06/04 05:02:45;;;;;;;12.53;11.53;;;19.60;99.90;;;;;;4953064;28;20177;-65
2022/06/04 05:05:12;;;;;;;10.43;9.67;;;19.50;99.90;;;;;;4951865;28;20429;-64
2022/06/04 05:07:41;;;;;;;11.23;10.53;;;19.30;99.90;;;;;;4953473;29;20516;-65
2022/06/04 05:10:08;;;;;;;11.37;10.40;;;19.10;99.90;;;;;;4951978;29;20455;-65
2022/06/04 05:12:34;;;;;;;10.80;10.00;;;19.20;99.90;;;;;;4951518;29;20435;-65
2022/06/04 05:15:00;;;;;;;10.43;9.63;;;19.40;99.90;;;;;;4951586;29;20812;-65
2022/06/04 05:17:25;;;;;;;10.10;9.40;;;19.60;99.90;;;;;;4951323;29;20209;-65
2022/06/04 05:19:51;;;;;;;9.37;8.67;;;19.70;99.90;;;;;;4952462;29;20663;-65
2022/06/04 05:22:16;;;;;;;10.77;9.97;;;19.90;99.90;;;;;;4952925;29;20424;-64
2022/06/04 05:24:43;;;;;;;10.60;9.63;;;19.90;99.90;;;;;;4952581;29;20525;-65
2022/06/04 05:27:09;;;;;;;10.80;10.00;;;20.10;99.90;;;;;;4950490;29;20662;-64
2022/06/04 05:29:36;;;;;;;10.07;9.20;;;20.20;99.90;;;;;;4952557;28;20452;-64
2022/06/04 05:32:02;;;;;;;9.47;8.77;;;20.30;99.90;;;;;;4946845;28;20193;-65
2022/06/04 05:34:28;;;;;;;10.70;10.00;;;20.30;99.90;;;;;;4952741;29;20449;-65
2022/06/04 05:36:54;;;;;;;11.23;10.23;;;20.30;99.90;;;;;;4951682;29;20527;-65
2022/06/04 05:39:20;;;;;;;10.40;9.70;;;20.30;99.90;;;;;;4952222;29;20456;-64
2022/06/04 05:41:46;;;;;;;9.73;9.10;;;20.30;99.90;;;;;;4952140;29;20457;-65
2022/06/04 05:44:12;;;;;;;9.63;8.93;;;20.30;99.90;;;;;;4951541;28;20524;-65
2022/06/04 05:46:42;;;;;;;11.00;9.00;;;20.40;99.90;;;;;;4951132;29;20216;-64
2022/06/04 05:49:12;;;;;;;9.07;8.30;;;20.40;99.90;;;;;;4949738;29;20443;-65
2022/06/04 05:51:39;;;;;;;10.37;9.57;;;20.50;99.90;;;;;;4951627;29;20456;-65
2022/06/04 05:54:05;;;;;;;6.57;6.13;;;20.50;99.90;;;;;;4952543;29;20443;-64
2022/06/04 05:56:34;;;;;;;7.63;7.03;;;20.40;99.90;;;;;;4952382;28;20432;-64
2022/06/04 05:59:02;;;;;;;8.60;7.47;;;19.90;99.90;;;;;;4950768;29;20231;-64
2022/06/04 06:01:31;;;;;;;9.60;7.57;;;19.60;99.90;;;;;;4952087;28;20467;-64
2022/06/04 06:03:57;;;;;;;9.13;8.33;;;19.30;99.90;;;;;;4952711;29;20436;-64
2022/06/04 06:06:27;;;;;;;8.67;7.87;;;19.10;99.90;;;;;;4952131;29;20440;-64
2022/06/04 06:08:54;;;;;;;8.83;8.13;;;18.90;99.90;;;;;;4951152;29;20530;-64
2022/06/04 06:11:20;;;;;;;9.53;8.70;;;18.80;99.90;;;;;;4951497;28;20467;-64
2022/06/04 06:13:48;;;;;;;9.37;8.47;;;18.60;99.90;;;;;;4951603;29;20444;-64
2022/06/04 06:16:19;;;;;;;12.17;10.77;;;18.60;99.90;;;;;;4953752;28;20457;-65
2022/06/04 06:18:45;;;;;;;11.70;10.53;;;18.30;99.90;;;;;;4956130;29;20547;-65
2022/06/04 06:21:14;;;;;;;12.17;11.07;;;17.90;99.90;;;;;;4955615;29;20496;-65
2022/06/04 06:23:40;;;;;;;14.43;12.93;;;17.70;99.90;;;;;;4955981;29;20506;-66
2022/06/04 06:26:07;;;;;;;15.10;13.60;;;17.60;99.90;;;;;;4953591;29;20455;-65
2022/06/04 06:28:34;;;;;;;16.00;14.70;;;17.50;99.90;;;;;;4955682;29;20475;-65
2022/06/04 06:31:00;;;;;;;13.93;12.73;;;17.40;99.90;;;;;;4955515;29;20562;-65
2022/06/04 06:33:26;;;;;;;16.10;14.60;;;17.40;99.90;;;;;;4956984;29;20527;-65
2022/06/04 06:35:59;;;;;;;15.87;14.53;;;17.40;99.90;;;;;;4957248;29;20181;-65
2022/06/04 06:38:25;;;;;;;15.80;14.37;;;17.50;99.90;;;;;;4937599;29;20212;-65
2022/06/04 06:40:53;;;;;;;16.73;15.33;;;17.50;99.90;;;;;;4937941;29;20445;-64
2022/06/04 06:43:19;;;;;;;15.73;14.47;;;17.50;99.90;;;;;;4938069;29;20227;-65
2022/06/04 06:45:45;;;;;;;16.00;14.40;;;17.60;99.90;;;;;;4937973;29;20428;-64
2022/06/04 06:48:11;;;;;;;15.50;14.30;;;17.80;99.90;;;;;;4938659;29;20461;-65
2022/06/04 06:50:37;;;;;;;15.87;14.30;;;17.80;99.90;;;;;;4956064;29;20472;-65
2022/06/04 06:53:03;;;;;;;15.53;14.40;;;18.00;99.90;;;;;;4954811;28;20196;-65
2022/06/04 06:55:29;;;;;;;15.63;14.30;;;18.10;99.90;;;;;;4955796;29;20447;-65
2022/06/04 06:57:55;;;;;;;15.97;13.73;;;18.20;99.90;;;;;;4955024;29;20463;-65
2022/06/04 07:00:20;;;;;;;14.03;13.03;;;18.30;99.90;;;;;;4955323;28;20196;-65
2022/06/04 07:02:46;;;;;;;15.77;14.13;;;18.30;99.90;;;;;;4949230;29;20227;-64
2022/06/04 07:05:12;;;;;;;15.60;14.30;;;18.30;99.90;;;;;;4956328;29;20208;-64
2022/06/04 07:07:37;;;;;;;16.20;14.60;;;18.30;99.90;;;;;;4953552;29;20659;-65
2022/06/04 07:10:04;;;;;;;16.60;14.80;;;18.30;99.90;;;;;;4956176;29;20914;-65
2022/06/04 07:12:31;;;;;;;15.80;14.50;;;18.40;99.90;;;;;;4956543;29;20180;-64
2022/06/04 07:14:57;;;;;;;16.53;14.80;;;18.30;99.90;;;;;;4956494;28;20977;-64
2022/06/04 07:17:23;;;;;;;16.20;14.57;;;18.40;99.90;;;;;;4956437;29;20430;-64
2022/06/04 07:19:48;;;;;;;15.80;14.53;;;18.40;99.90;;;;;;4954491;29;20479;-65
2022/06/04 07:22:14;;;;;;;15.10;13.70;;;18.60;99.90;;;;;;4950395;28;20198;-64
2022/06/04 07:24:39;;;;;;;14.20;13.07;;;18.70;99.90;;;;;;4943141;29;20181;-65
2022/06/04 07:27:06;;;;;;;14.60;13.50;;;18.90;99.90;;;;;;4953151;28;20185;-65
2022/06/04 07:29:31;;;;;;;13.03;12.10;;;19.20;99.90;;;;;;4954576;29;20256;-65
2022/06/04 07:31:57;;;;;;;12.50;11.40;;;19.70;99.90;;;;;;4953980;28;20875;-64
2022/06/04 07:34:22;;;;;;;12.00;11.07;;;20.20;99.90;;;;;;4954306;29;20185;-64
2022/06/04 07:36:48;;;;;;;13.43;12.23;;;20.60;99.90;;;;;;4953304;29;20220;-65
2022/06/04 07:39:18;;;;;;;11.13;10.23;;;20.90;99.90;;;;;;4954466;29;20291;-65
2022/06/04 07:41:46;;;;;;;11.30;10.43;;;21.30;99.90;;;;;;4954016;29;20600;-64
2022/06/04 07:44:16;;;;;;;10.80;9.90;;;21.40;99.90;;;;;;4943596;28;20442;-65
2022/06/04 07:46:43;;;;;;;9.60;8.90;;;21.60;99.90;;;;;;4951139;29;20436;-65
2022/06/04 07:49:10;;;;;;;8.93;8.23;;;21.70;99.90;;;;;;4953345;29;21153;-65
2022/06/04 07:51:36;;;;;;;10.43;9.67;;;21.90;99.90;;;;;;4954981;28;21040;-65
2022/06/04 07:54:03;;;;;;;9.53;8.73;;;21.90;99.90;;;;;;4953263;29;20440;-65
2022/06/04 07:56:29;;;;;;;11.37;10.57;;;22.00;99.90;;;;;;4950020;29;20436;-65
2022/06/04 07:58:55;;;;;;;10.63;9.70;;;22.10;99.90;;;;;;4953787;29;20523;-65
2022/06/04 08:01:22;;;;;;;10.90;9.77;;;22.20;99.90;;;;;;4953214;28;20573;-65
2022/06/04 08:03:49;;;;;;;9.70;8.80;;;22.40;99.90;;;;;;4953726;29;20181;-65
2022/06/04 08:06:17;;;;;;;11.30;10.30;;;22.60;99.90;;;;;;4954755;29;20436;-65
2022/06/04 08:08:43;;;;;;;11.20;10.20;;;22.80;99.90;;;;;;4953448;29;20783;-65
2022/06/04 08:13:54;;;;;;;9.83;8.93;;;24.10;99.90;;;;;;4953556;29;20564;-65
2022/06/04 08:16:20;;;;;;;10.23;9.43;;;24.70;99.90;;;;;;4952890;29;20440;-65
2022/06/04 08:18:46;;;;;;;8.90;8.00;;;25.00;99.90;;;;;;4953830;29;20682;-64
2022/06/04 08:21:11;;;;;;;11.33;10.33;;;24.90;99.90;;;;;;4953448;29;20973;-65
2022/06/04 08:23:39;;;;;;;10.60;9.60;;;24.40;99.90;;;;;;4953335;29;20527;-65
2022/06/04 08:26:08;;;;;;;9.70;8.70;;;24.00;99.90;;;;;;4952913;29;20181;-65
2022/06/04 08:28:34;;;;;;;9.77;8.93;;;24.10;99.90;;;;;;4952289;29;20962;-65
2022/06/04 08:31:02;;;;;;;9.43;8.63;;;24.60;99.90;;;;;;4952907;28;20475;-65
2022/06/04 08:33:28;;;;;;;9.47;8.77;;;25.20;99.90;;;;;;4953869;29;20451;-65
2022/06/04 08:35:54;;;;;;;8.00;7.50;;;25.80;99.90;;;;;;4953319;29;20938;-65
2022/06/04 08:38:19;;;;;;;9.23;8.53;;;26.20;99.90;;;;;;4951644;28;20460;-65
2022/06/04 08:40:51;;;;;;;10.10;8.20;;;26.20;99.90;;;;;;4954482;28;20286;-65
2022/06/04 08:43:24;;;;;;;9.57;8.67;;;26.20;99.90;;;;;;4951998;29;20177;-65
2022/06/04 08:45:49;;;;;;;9.17;8.27;;;26.40;99.90;;;;;;4953967;29;20499;-65
2022/06/04 08:48:29;;;;;;;7.63;7.13;;;26.10;99.90;;;;;;4953347;29;20520;-65
2022/06/04 08:50:55;;;;;;;7.17;6.67;;;26.30;99.90;;;;;;4952507;28;20563;-65
2022/06/04 08:53:27;;;;;;;7.80;7.00;;;26.60;99.90;;;;;;4951896;29;20475;-65
2022/06/04 08:59:32;;;;;;;7.80;7.30;;;27.30;99.90;;;;;;4928649;28;20487;-65
2022/06/04 09:02:04;;;;;;;7.03;6.47;;;27.40;99.90;;;;;;4943913;29;20981;-65
2022/06/04 09:04:59;;;;;;;7.20;6.60;;;27.50;99.90;;;;;;4946338;29;20916;-65
2022/06/04 09:07:41;;;;;;;8.73;7.93;;;27.50;99.90;;;;;;4953323;28;20468;-65
2022/06/04 09:10:27;;;;;;;7.97;7.37;;;27.70;99.90;;;;;;4952850;29;20449;-65
2022/06/04 09:13:20;;;;;;;7.20;6.67;;;28.00;99.90;;;;;;4952719;29;20441;-65
2022/06/04 09:15:50;;;;;;;6.97;6.43;;;28.20;99.90;;;;;;4947226;29;20527;-65
2022/06/04 09:18:32;;;;;;;6.67;6.20;;;27.70;99.90;;;;;;4951766;29;20461;-65
2022/06/04 09:21:00;;;;;;;6.57;5.90;;;27.30;99.90;;;;;;4951272;28;20452;-65
2022/06/04 09:23:34;;;;;;;6.47;5.97;;;27.70;99.90;;;;;;4952676;29;20451;-65
2022/06/04 09:26:00;;;;;;;6.07;5.63;;;27.70;99.90;;;;;;4952695;29;20428;-65
2022/06/04 09:28:59;;;;;;;8.20;6.03;;;28.30;99.90;;;;;;4952621;29;20532;-66
2022/06/04 09:31:54;;;;;;;6.53;6.03;;;28.90;99.90;;;;;;4953662;29;20642;-65
2022/06/04 09:34:26;;;;;;;6.77;6.33;;;29.50;99.90;;;;;;4954161;29;20428;-65
2022/06/04 09:36:52;;;;;;;8.07;6.63;;;29.70;99.90;;;;;;4951368;29;20443;-65
2022/06/04 09:39:22;;;;;;;6.60;6.10;;;29.00;99.90;;;;;;4951935;29;20456;-65
2022/06/04 09:41:58;;;;;;;6.03;5.63;;;28.50;99.90;;;;;;4950940;28;20205;-65
2022/06/04 09:44:27;;;;;;;6.47;5.93;;;28.10;99.90;;;;;;4951784;28;20444;-65
2022/06/04 09:46:59;;;;;;;10.60;5.90;;;28.20;99.90;;;;;;4952449;28;20440;-65
2022/06/04 09:49:37;;;;;;;7.40;6.80;;;28.30;99.90;;;;;;4951966;28;20448;-65
2022/06/04 09:52:11;;;;;;;7.47;7.07;;;28.00;99.90;;;;;;4950956;28;20460;-65
2022/06/04 09:54:37;;;;;;;7.73;7.13;;;27.70;99.90;;;;;;4948157;29;20515;-65
2022/06/04 09:57:05;;;;;;;7.90;7.30;;;27.20;99.90;;;;;;4951539;29;20886;-65
2022/06/04 09:59:33;;;;;;;8.40;7.63;;;26.80;99.90;;;;;;4947398;29;20292;-65
2022/06/04 10:02:18;;;;;;;9.30;8.60;;;26.50;99.90;;;;;;4951159;28;20459;-64
2022/06/04 10:04:49;;;;;;;7.77;7.27;;;26.10;99.90;;;;;;4951996;29;21001;-65
2022/06/04 10:07:18;;;;;;;8.87;7.80;;;25.80;99.90;;;;;;4951008;29;20432;-65
2022/06/04 10:09:57;;;;;;;10.03;9.33;;;25.90;99.90;;;;;;4952185;28;20471;-65
2022/06/04 10:15:37;;;;;;;10.03;9.33;;;25.50;99.90;;;;;;4953242;29;20431;-65
2022/06/04 10:18:28;;;;;;;9.40;8.70;;;25.30;99.90;;;;;;4951389;29;20530;-65
2022/06/04 10:21:01;;;;;;;9.37;8.77;;;24.90;99.90;;;;;;4947426;28;20471;-65
2022/06/04 10:23:29;;;;;;;9.27;8.67;;;24.70;99.90;;;;;;4951507;29;20441;-65
2022/06/04 10:26:20;;;;;;;10.13;9.37;;;25.00;99.90;;;;;;4951175;28;20444;-65
2022/06/04 10:29:15;;;;;;;9.53;8.80;;;25.30;99.90;;;;;;4946447;29;20968;-64
2022/06/04 10:32:18;;;;;;;13.90;12.80;;;25.30;99.90;;;;;;4947720;29;21000;-65
2022/06/04 10:34:59;;;;;;;13.27;12.17;;;24.80;99.90;;;;;;4948433;29;20443;-64
2022/06/04 10:37:39;;;;;;;13.60;12.40;;;24.30;99.90;;;;;;4953073;29;20432;-65
2022/06/04 10:40:42;;;;;;;13.30;12.40;;;24.00;99.90;;;;;;4951511;29;20526;-65
2022/06/04 10:43:26;;;;;;;12.80;11.90;;;24.20;99.90;;;;;;4952352;29;20969;-65
2022/06/04 10:46:03;;;;;;;15.57;14.37;;;24.50;99.90;;;;;;4952842;29;20471;-65
2022/06/04 10:48:43;;;;;;;13.87;12.97;;;24.40;99.90;;;;;;4951313;29;20428;-65
2022/06/04 10:51:27;;;;;;;12.10;11.00;;;24.30;99.90;;;;;;4952468;29;20452;-65
2022/06/04 10:54:04;;;;;;;14.17;13.23;;;24.30;99.90;;;;;;4952495;29;20443;-65
2022/06/04 10:56:56;;;;;;;12.10;11.20;;;24.20;99.90;;;;;;4945472;29;20515;-64
2022/06/04 10:59:24;;;;;;;12.43;11.53;;;24.00;99.90;;;;;;4951091;29;20468;-65
2022/06/04 11:01:58;;;;;;;14.27;13.23;;;23.70;99.90;;;;;;4951490;28;20457;-65
2022/06/04 11:04:37;;;;;;;14.27;13.17;;;23.50;99.90;;;;;;4955628;29;20543;-65
2022/06/04 11:07:31;;;;;;;13.00;12.10;;;23.40;99.90;;;;;;4954637;29;20516;-65
2022/06/04 11:09:58;;;;;;;12.47;11.57;;;23.20;99.90;;;;;;4954238;28;20456;-65
2022/06/04 11:12:47;;;;;;;12.50;11.43;;;23.30;99.90;;;;;;4954767;28;20531;-65
2022/06/04 11:15:18;;;;;;;11.57;10.67;;;23.40;99.90;;;;;;4953597;29;21078;-65
2022/06/04 11:17:50;;;;;;;12.20;11.33;;;23.40;99.90;;;;;;4954834;29;20527;-65
2022/06/04 11:20:24;;;;;;;13.00;12.00;;;23.40;99.90;;;;;;4955262;28;21111;-65
2022/06/04 11:23:12;;;;;;;12.83;11.73;;;23.50;99.90;;;;;;4954432;29;20640;-64
2022/06/04 11:25:42;;;;;;;12.70;11.80;;;23.60;99.90;;;;;;4948637;29;20763;-65
2022/06/04 11:28:11;;;;;;;13.80;12.70;;;23.60;99.90;;;;;;4955491;29;20776;-65
2022/06/04 11:30:56;;;;;;;12.20;11.40;;;23.60;99.90;;;;;;4954563;28;20464;-65
2022/06/04 11:33:53;;;;;;;13.30;12.30;;;23.50;99.90;;;;;;4953134;29;20970;-65
2022/06/04 11:36:33;;;;;;;14.57;13.37;;;23.40;99.90;;;;;;4953952;29;20532;-65
2022/06/04 11:39:11;;;;;;;17.00;15.60;;;23.30;99.90;;;;;;4953346;29;20472;-65
2022/06/04 11:42:01;;;;;;;16.00;14.93;;;23.20;99.90;;;;;;4953873;28;20555;-65
2022/06/04 11:44:48;;;;;;;14.40;13.30;;;23.20;99.90;;;;;;4954947;29;20432;-65
2022/06/04 11:47:21;;;;;;;15.57;14.27;;;23.30;99.90;;;;;;4954707;29;20433;-65
2022/06/04 11:50:06;;;;;;;15.50;13.63;;;23.40;99.90;;;;;;4954157;29;20447;-65
2022/06/04 11:52:39;;;;;;;14.10;13.00;;;23.70;99.90;;;;;;4949641;29;20483;-65
2022/06/04 11:55:34;;;;;;;14.80;13.50;;;23.90;99.90;;;;;;4954343;29;20448;-65
2022/06/04 11:58:18;;;;;;;14.57;13.20;;;24.20;99.90;;;;;;4954301;29;20433;-65
2022/06/04 12:00:45;;;;;;;15.07;13.97;;;24.40;99.90;;;;;;4950884;28;20452;-65
2022/06/04 12:03:21;;;;;;;14.83;13.73;;;24.50;99.90;;;;;;4953875;29;20746;-65
2022/06/04 12:05:56;;;;;;;15.80;14.60;;;24.70;99.90;;;;;;4954576;29;20438;-65
2022/06/04 12:08:26;;;;;;;15.73;14.43;;;24.70;99.90;;;;;;4953288;29;20889;-65
2022/06/04 12:11:18;;;;;;;17.50;16.00;;;25.10;99.90;;;;;;4950752;29;20998;-65
2022/06/04 12:14:10;;;;;;;15.40;14.30;;;25.70;99.90;;;;;;4951344;28;21066;-65
2022/06/04 12:17:00;;;;;;;14.90;13.63;;;25.90;99.90;;;;;;4953122;29;20440;-65
2022/06/04 12:25:18;;;;;;;14.73;13.70;;;29.20;99.90;;;;;;4954787;29;20444;-65
2022/06/04 12:27:58;;;;;;;14.07;13.20;;;31.60;99.90;;;;;;4953406;29;20436;-65
2022/06/04 12:30:39;;;;;;;17.03;15.83;;;31.90;99.90;;;;;;4952021;28;20458;-65
2022/06/04 12:33:28;;;;;;;14.57;13.63;;;31.80;99.10;;;;;;4952069;28;20519;-66
2022/06/04 12:36:23;;;;;;;14.97;13.97;;;31.90;98.50;;;;;;4953419;29;20436;-66
2022/06/04 12:39:17;;;;;;;15.73;14.50;;;31.80;98.30;;;;;;4949726;29;20464;-63
2022/06/04 12:41:47;;;;;;;13.63;12.67;;;33.30;96.20;;;;;;4952411;29;20456;-63
2022/06/04 12:44:34;;;;;;;13.60;12.60;;;34.60;92.40;;;;;;4951956;28;20437;-63
2022/06/04 12:47:30;;;;;;;12.43;11.63;;;34.80;91.00;;;;;;4948627;29;20822;-66
2022/06/04 12:50:18;;;;;;;14.23;13.20;;;35.10;90.00;;;;;;4942385;29;20883;-66
2022/06/04 12:52:56;;;;;;;14.00;13.10;;;34.30;90.50;;;;;;4947913;29;20436;-65
2022/06/04 12:55:27;;;;;;;12.80;12.00;;;33.40;90.60;;;;;;4954006;28;20455;-66
2022/06/04 12:57:58;;;;;;;13.93;12.97;;;32.40;91.60;;;;;;4951963;29;20471;-65
2022/06/04 13:00:45;;;;;;;12.80;11.90;;;31.90;93.00;;;;;;4952692;28;20475;-66
2022/06/04 13:03:11;;;;;;;13.60;12.63;;;33.70;91.40;;;;;;4953018;29;20437;-63
2022/06/04 13:05:57;;;;;;;11.70;11.00;;;36.50;85.00;;;;;;4953829;29;20440;-64
2022/06/04 13:08:56;;;;;;;12.50;11.70;;;37.40;78.20;;;;;;4952066;29;20276;-63
2022/06/04 13:11:37;;;;;;;12.10;11.20;;;35.80;79.40;;;;;;4948574;28;20538;-64
2022/06/04 13:14:02;;;;;;;12.50;11.60;;;36.30;78.20;;;;;;4951114;29;20497;-66
2022/06/04 13:16:30;;;;;;;12.33;11.53;;;36.50;77.50;;;;;;4939233;29;20520;-66